Hickory Hill, Arkansas
Current Conditions -  °F | °C
As of 2:53 PM on Thursday 18 Dec 2014 (Local Time) from KRUE Reporting Station
Overcast Overcast  
Wind Chill:   Ceiling: 700
Heat Index:   Visibility: 8mi
Dew Point:   Wind: 7mph
Humidity: 86%   Direction: 60°ENE
Pressure: 30.16"   Gusts: NA
Location:  35.227°N, 92.6879°W
Report Text: KRUE 182053Z AUTO 06006KT 8SM OVC007 05/03 A3016 RMK AO2 SLP212 T00500028 56017
Loading
Personal Weather Stations






























Interactive Weather Map New forecast layout! Learn more

10-Day Weather Forecast

Advertisements
Track Severe Weather on mobile